NOAA Web Site Link Tides and Currents Home Page Transparent placeholder image

PORTS® Data Listing: 8555889 Brandywine Shoal Light, DE

CO-OPS RAW PORTS DATA

************************      PRELIMINARY DATA      ************************** 

     THIS RAW DATA HAS NOT BEEN SUBJECT TO THE NATIONAL OCEAN SERVICE'S        
     QUALITY CONTROL OR QUALITY ASSURANCE PROCEDURES AND DOES NOT MEET         
     THE CRITERIA AND STANDARDS OF OFFICIAL NATIONAL OCEAN SERVICE             
     DATA.  IT IS RELEASED FOR LIMITED PUBLIC USE AS PRELIMINARY DATA TO       
     BE USED ONLY WITH APPROPRIATE CAUTION.                                    

************************      PRELIMINARY DATA      ************************** 


       CD   -   Calendar date
       T    -   Time
       TZ   -   Timezone
       PW   -   Predicted water level (feet above MLLW)
       OW   -   Observed water level (feet above MLLW)
       WS   -   Wind speed (knots)
       WD   -   Wind direction (degrees true)
       WG   -   Wind gust (knots)
       AT   -   Air temperature (degrees farenheit)
       WT   -   Water temperature (degrees farenheit)
       AP   -   Air pressure (millibars)
       SA   -   Salinty (PSU - Practical Salinity Units)
       SG   -   Specific gravity
       RH   -   Relative humidity
       AG   -   Air gap (feet)
       VI   -   Visibility (nautical miles)

       ** NOTE **
       A variable that has its data fields filled with "9"s, indicates that
       data was not collected for that sample period.
       **********


STATION NAME: Brandywine Shoal Light (8555889)
****************************************************************************************************
    CD       T    TZ    PW     OW    WS   WD   WG    AT    WT    AP    SA    SG     RH    AG   VI
****************************************************************************************************
2018/10/21 21:36 EDT    3.96   4.09   26    0   32  50.9 -99.9 1022.6 -9.9 -9.999 -99.9 -99.99 -9.99
2018/10/21 21:42 EDT    3.85   3.97   26  360   31  51.3 -99.9 1022.6 -9.9 -9.999 -99.9 -99.99 -9.99
2018/10/21 21:48 EDT    3.73   3.83   29    2   33  50.7 -99.9 1022.6 -9.9 -9.999 -99.9 -99.99 -9.99
2018/10/21 21:54 EDT    3.62   3.69   28  360   31  50.7 -99.9 1022.7 -9.9 -9.999 -99.9 -99.99 -9.99
2018/10/21 22:00 EDT    3.50   3.58   28    5   31  50.5 -99.9 1022.7 -9.9 -9.999 -99.9 -99.99 -9.99
2018/10/21 22:06 EDT    3.39   3.45   27    1   31  50.4 -99.9 1022.9 -9.9 -9.999 -99.9 -99.99 -9.99
2018/10/21 22:12 EDT    3.27   3.31   28    0   31  50.4 -99.9 1022.8 -9.9 -9.999 -99.9 -99.99 -9.99
2018/10/21 22:18 EDT    3.15   3.17   28    4   33  50.5 -99.9 1022.9 -9.9 -9.999 -99.9 -99.99 -9.99
2018/10/21 22:24 EDT    3.03   3.05   25  359   33  50.2 -99.9 1023.1 -9.9 -9.999 -99.9 -99.99 -9.99
2018/10/21 22:30 EDT    2.91   2.89   26    2   31  50.0 -99.9 1023.2 -9.9 -9.999 -99.9 -99.99 -9.99
2018/10/21 22:36 EDT    2.79   2.79   21    7   29  49.8 -99.9 1023.4 -9.9 -9.999 -99.9 -99.99 -9.99
2018/10/21 22:42 EDT    2.67   2.71   22    5   29  50.0 -99.9 1023.4 -9.9 -9.999 -99.9 -99.99 -9.99
2018/10/21 22:48 EDT    2.55   2.59   26  359   30  49.8 -99.9 1023.2 -9.9 -9.999 -99.9 -99.99 -9.99
2018/10/21 22:54 EDT    2.43   2.47   25  356   30  49.6 -99.9 1023.3 -9.9 -9.999 -99.9 -99.99 -9.99
2018/10/21 23:00 EDT    2.31   2.35   23    4   30  49.6 -99.9 1023.3 -9.9 -9.999 -99.9 -99.99 -9.99
2018/10/21 23:06 EDT    2.19   2.24   23    5   26  49.8 -99.9 1023.4 -9.9 -9.999 -99.9 -99.99 -9.99
2018/10/21 23:12 EDT    2.07   2.11   21  357   27  49.5 -99.9 1023.5 -9.9 -9.999 -99.9 -99.99 -9.99
2018/10/21 23:18 EDT    1.96   1.99   23    7   26  49.1 -99.9 1023.6 -9.9 -9.999 -99.9 -99.99 -9.99
2018/10/21 23:24 EDT    1.84   1.87   21    3   25  49.1 -99.9 1023.6 -9.9 -9.999 -99.9 -99.99 -9.99
2018/10/21 23:30 EDT    1.73   1.77   23  357   27  49.3 -99.9 1023.4 -9.9 -9.999 -99.9 -99.99 -9.99
2018/10/21 23:36 EDT    1.62   1.68   21    2   25  49.3 -99.9 1023.4 -9.9 -9.999 -99.9 -99.99 -9.99
2018/10/21 23:42 EDT    1.52   1.56   20  360   27  49.1 -99.9 1023.6 -9.9 -9.999 -99.9 -99.99 -9.99
2018/10/21 23:48 EDT    1.42   1.45   21    3   26  49.3 -99.9 1023.7 -9.9 -9.999 -99.9 -99.99 -9.99
2018/10/21 23:54 EDT    1.32   1.37   18  355   23  48.9 -99.9 1023.7 -9.9 -9.999 -99.9 -99.99 -9.99
2018/10/22 00:00 EDT    1.23   1.26   21    5   26  48.7 -99.9 1023.7 -9.9 -9.999 -99.9 -99.99 -9.99
2018/10/22 00:06 EDT    1.14   1.16   21    4   26  48.6 -99.9 1023.7 -9.9 -9.999 -99.9 -99.99 -9.99
2018/10/22 00:12 EDT    1.06   1.09   20    2   24  48.7 -99.9 1023.8 -9.9 -9.999 -99.9 -99.99 -9.99
2018/10/22 00:18 EDT    0.99   1.01   21    6   25  48.7 -99.9 1023.9 -9.9 -9.999 -99.9 -99.99 -9.99
2018/10/22 00:24 EDT    0.91   0.91   20    6   23  48.4 -99.9 1024.1 -9.9 -9.999 -99.9 -99.99 -9.99
2018/10/22 00:30 EDT    0.85   0.86   19    7   24  48.2 -99.9 1024.3 -9.9 -9.999 -99.9 -99.99 -9.99
2018/10/22 00:36 EDT    0.79   0.77   18    7   21  48.4 -99.9 1024.3 -9.9 -9.999 -99.9 -99.99 -9.99
2018/10/22 00:42 EDT    0.74   0.71   16    5   22  48.4 -99.9 1024.3 -9.9 -9.999 -99.9 -99.99 -9.99
2018/10/22 00:48 EDT    0.69   0.64   16    2   22  48.0 -99.9 1024.3 -9.9 -9.999 -99.9 -99.99 -9.99
2018/10/22 00:54 EDT    0.65   0.60   17    6   21  48.4 -99.9 1024.3 -9.9 -9.999 -99.9 -99.99 -9.99
2018/10/22 01:00 EDT    0.61   0.54   18   11   22  48.6 -99.9 1024.5 -9.9 -9.999 -99.9 -99.99 -9.99
2018/10/22 01:06 EDT    0.59   0.49   17    5   23  48.4 -99.9 1024.5 -9.9 -9.999 -99.9 -99.99 -9.99
2018/10/22 01:12 EDT    0.56   0.48   17    7   21  48.2 -99.9 1024.5 -9.9 -9.999 -99.9 -99.99 -9.99
2018/10/22 01:18 EDT    0.55   0.47   16    7   20  48.2 -99.9 1024.5 -9.9 -9.999 -99.9 -99.99 -9.99
2018/10/22 01:24 EDT    0.54   0.48   16    4   19  48.4 -99.9 1024.5 -9.9 -9.999 -99.9 -99.99 -9.99
2018/10/22 01:30 EDT    0.54   0.45   15   10   18  48.2 -99.9 1024.7 -9.9 -9.999 -99.9 -99.99 -9.99
2018/10/22 01:36 EDT    0.54   0.49   15    8   19  48.2 -99.9 1024.7 -9.9 -9.999 -99.9 -99.99 -9.99
2018/10/22 01:42 EDT    0.55   0.51   15  357   21  48.4 -99.9 1024.6 -9.9 -9.999 -99.9 -99.99 -9.99
2018/10/22 01:48 EDT    0.57   0.52   14  354   19  48.9 -99.9 1024.8 -9.9 -9.999 -99.9 -99.99 -9.99
2018/10/22 01:54 EDT    0.59   0.53   13  351   19  48.7 -99.9 1024.8 -9.9 -9.999 -99.9 -99.99 -9.99
2018/10/22 02:00 EDT    0.61   0.55   17  359   19  48.4 -99.9 1024.7 -9.9 -9.999 -99.9 -99.99 -9.99
2018/10/22 02:06 EDT    0.64   0.56   13  354   19  48.7 -99.9 1024.8 -9.9 -9.999 -99.9 -99.99 -9.99
2018/10/22 02:12 EDT    0.68   0.58   15   11   20  48.4 -99.9 1024.9 -9.9 -9.999 -99.9 -99.99 -9.99
2018/10/22 02:18 EDT    0.72   0.62   15  358   19  48.6 -99.9 1024.9 -9.9 -9.999 -99.9 -99.99 -9.99
2018/10/22 02:24 EDT    0.77   0.65   16  359   19  48.6 -99.9 1024.9 -9.9 -9.999 -99.9 -99.99 -9.99
2018/10/22 02:30 EDT    0.82   0.71   11  347   17  48.6 -99.9 1025.0 -9.9 -9.999 -99.9 -99.99 -9.99
2018/10/22 02:36 EDT    0.88   0.74    9  330   12  48.6 -99.9 1025.0 -9.9 -9.999 -99.9 -99.99 -9.99
2018/10/22 02:42 EDT    0.94   0.80   10  347   13  48.2 -99.9 1025.0 -9.9 -9.999 -99.9 -99.99 -9.99
2018/10/22 02:48 EDT    1.00   0.86    9  334   14  48.4 -99.9 1025.1 -9.9 -9.999 -99.9 -99.99 -9.99
2018/10/22 02:54 EDT    1.07   0.92   13  358   15  48.4 -99.9 1025.0 -9.9 -9.999 -99.9 -99.99 -9.99
2018/10/22 03:00 EDT    1.14   1.00    9  329   14  48.2 -99.9 1025.0 -9.9 -9.999 -99.9 -99.99 -9.99
2018/10/22 03:06 EDT    1.22   1.10    9  343   12  48.4 -99.9 1025.0 -9.9 -9.999 -99.9 -99.99 -9.99
2018/10/22 03:12 EDT    1.30   1.19    8  337   11  48.7 -99.9 1025.0 -9.9 -9.999 -99.9 -99.99 -9.99
2018/10/22 03:18 EDT    1.39   1.26    7  322   12  48.4 -99.9 1025.0 -9.9 -9.999 -99.9 -99.99 -9.99
2018/10/22 03:24 EDT    1.48   1.36    9  344   15  48.4 -99.9 1025.1 -9.9 -9.999 -99.9 -99.99 -9.99
2018/10/22 03:30 EDT    1.57   1.48    8  337   11  48.6 -99.9 1025.1 -9.9 -9.999 -99.9 -99.99 -9.99
2018/10/22 03:36 EDT    1.66   1.54   10  342   12  48.6 -99.9 1025.1 -9.9 -9.999 -99.9 -99.99 -9.99
2018/10/22 03:42 EDT    1.76   1.68    9  329   12  48.4 -99.9 1025.0 -9.9 -9.999 -99.9 -99.99 -9.99
2018/10/22 03:48 EDT    1.86   1.80    9  343   12  48.9 -99.9 1025.0 -9.9 -9.999 -99.9 -99.99 -9.99
2018/10/22 03:54 EDT    1.97   1.92    8  316   10  48.2 -99.9 1025.1 -9.9 -9.999 -99.9 -99.99 -9.99
2018/10/22 04:00 EDT    2.08   2.02    7  340   11  48.4 -99.9 1025.2 -9.9 -9.999 -99.9 -99.99 -9.99
2018/10/22 04:06 EDT    2.18   2.16    9  320   13  48.6 -99.9 1025.2 -9.9 -9.999 -99.9 -99.99 -9.99
2018/10/22 04:12 EDT    2.30   2.26    8  324   11  48.2 -99.9 1025.2 -9.9 -9.999 -99.9 -99.99 -9.99
2018/10/22 04:18 EDT    2.41   2.39    9  313   13  48.4 -99.9 1025.2 -9.9 -9.999 -99.9 -99.99 -9.99
2018/10/22 04:24 EDT    2.52   2.51   10  308   15  47.8 -99.9 1025.1 -9.9 -9.999 -99.9 -99.99 -9.99
2018/10/22 04:30 EDT    2.64   2.65   11  303   14  47.7 -99.9 1025.2 -9.9 -9.999 -99.9 -99.99 -9.99
2018/10/22 04:36 EDT    2.76   2.77   10  313   13  48.4 -99.9 1025.3 -9.9 -9.999 -99.9 -99.99 -9.99
2018/10/22 04:42 EDT    2.88   2.88   11  312   15  48.2 -99.9 1025.3 -9.9 -9.999 -99.9 -99.99 -9.99
2018/10/22 04:48 EDT    2.99   3.01    8  323   12  48.0 -99.9 1025.2 -9.9 -9.999 -99.9 -99.99 -9.99
2018/10/22 04:54 EDT    3.11   3.12   10  322   14  48.2 -99.9 1025.2 -9.9 -9.999 -99.9 -99.99 -9.99
2018/10/22 05:00 EDT    3.23   3.26    9  319   11  48.0 -99.9 1025.2 -9.9 -9.999 -99.9 -99.99 -9.99
2018/10/22 05:06 EDT    3.35   3.36   10  336   13  47.8 -99.9 1025.3 -9.9 -9.999 -99.9 -99.99 -9.99
2018/10/22 05:12 EDT    3.47   3.48   10  335   12  48.0 -99.9 1025.3 -9.9 -9.999 -99.9 -99.99 -9.99
2018/10/22 05:18 EDT    3.58   3.61   13  349   16  48.2 -99.9 1025.3 -9.9 -9.999 -99.9 -99.99 -9.99
2018/10/22 05:24 EDT    3.70   3.74   14  349   16  48.2 -99.9 1025.3 -9.9 -9.999 -99.9 -99.99 -9.99
2018/10/22 05:30 EDT    3.81   3.88   14    1   18  48.2 -99.9 1025.3 -9.9 -9.999 -99.9 -99.99 -9.99
2018/10/22 05:36 EDT    3.92   4.01   14    1   21  48.2 -99.9 1025.3 -9.9 -9.999 -99.9 -99.99 -9.99
2018/10/22 05:42 EDT    4.02   4.14   16  358   20  48.2 -99.9 1025.3 -9.9 -9.999 -99.9 -99.99 -9.99
2018/10/22 05:48 EDT    4.13   4.26   10  358   17  48.6 -99.9 1025.5 -9.9 -9.999 -99.9 -99.99 -9.99
2018/10/22 05:54 EDT    4.23   4.38   13  359   17  48.4 -99.9 1025.4 -9.9 -9.999 -99.9 -99.99 -9.99
2018/10/22 06:00 EDT    4.33   4.50   14   13   17  48.6 -99.9 1025.4 -9.9 -9.999 -99.9 -99.99 -9.99
2018/10/22 06:06 EDT    4.42   4.61    9  330   18  48.4 -99.9 1025.6 -9.9 -9.999 -99.9 -99.99 -9.99
2018/10/22 06:12 EDT    4.51   4.70   11  338   15  48.2 -99.9 1025.6 -9.9 -9.999 -99.9 -99.99 -9.99
2018/10/22 06:18 EDT    4.60   4.78   12    6   13  48.4 -99.9 1025.7 -9.9 -9.999 -99.9 -99.99 -9.99
2018/10/22 06:24 EDT    4.68   4.86    9    0   15  48.4 -99.9 1025.7 -9.9 -9.999 -99.9 -99.99 -9.99
2018/10/22 06:30 EDT    4.76   4.96   10  359   12  48.4 -99.9 1025.7 -9.9 -9.999 -99.9 -99.99 -9.99
2018/10/22 06:36 EDT    4.83   5.01    8  319   11  48.4 -99.9 1025.8 -9.9 -9.999 -99.9 -99.99 -9.99
2018/10/22 06:42 EDT    4.90   5.09    6  328   13  48.6 -99.9 1025.9 -9.9 -9.999 -99.9 -99.99 -9.99
2018/10/22 06:48 EDT    4.96   5.14    9  320   12  48.0 -99.9 1026.0 -9.9 -9.999 -99.9 -99.99 -9.99
2018/10/22 06:54 EDT    5.02   5.21   11  320   15  48.0 -99.9 1026.1 -9.9 -9.999 -99.9 -99.99 -9.99
2018/10/22 07:00 EDT    5.07   5.27    9  331   12  48.2 -99.9 1026.1 -9.9 -9.999 -99.9 -99.99 -9.99
2018/10/22 07:06 EDT    5.12   5.32    9  336   13  48.0 -99.9 1026.2 -9.9 -9.999 -99.9 -99.99 -9.99
2018/10/22 07:12 EDT    5.16   5.34    9  329   11  47.8 -99.9 1026.2 -9.9 -9.999 -99.9 -99.99 -9.99
2018/10/22 07:18 EDT    5.19   5.39    9  314   12  48.0 -99.9 1026.2 -9.9 -9.999 -99.9 -99.99 -9.99
2018/10/22 07:24 EDT    5.22   5.43    8  326   12  48.4 -99.9 1026.2 -9.9 -9.999 -99.9 -99.99 -9.99
2018/10/22 07:30 EDT    5.24   5.45    9  319   13  49.1 -99.9 1026.3 -9.9 -9.999 -99.9 -99.99 -9.99
2018/10/22 07:36 EDT    5.25   5.49   11  310   13  48.7 -99.9 1026.3 -9.9 -9.999 -99.9 -99.99 -9.99
2018/10/22 07:42 EDT    5.26   5.48    8  320   14  49.3 -99.9 1026.3 -9.9 -9.999 -99.9 -99.99 -9.99
2018/10/22 07:48 EDT    5.26   5.51   10  309   15  48.4 -99.9 1026.4 -9.9 -9.999 -99.9 -99.99 -9.99
2018/10/22 07:54 EDT    5.26   5.49    9  315   14  49.3 -99.9 1026.5 -9.9 -9.999 -99.9 -99.99 -9.99
2018/10/22 08:00 EDT    5.25   5.50    9  307   12  52.0 -99.9 1026.6 -9.9 -9.999 -99.9 -99.99 -9.99
2018/10/22 08:06 EDT    5.23   5.50    7  326   11  50.9 -99.9 1026.8 -9.9 -9.999 -99.9 -99.99 -9.99
2018/10/22 08:12 EDT    5.21   5.48    6  323    9  50.2 -99.9 1026.9 -9.9 -9.999 -99.9 -99.99 -9.99
2018/10/22 08:18 EDT    5.18   5.46    7  309   11  53.4 -99.9 1026.9 -9.9 -9.999 -99.9 -99.99 -9.99
2018/10/22 08:24 EDT    5.14   5.46    7  319   10  52.0 -99.9 1027.0 -9.9 -9.999 -99.9 -99.99 -9.99
2018/10/22 08:30 EDT    5.10   5.43    6  314   11  53.6 -99.9 1027.0 -9.9 -9.999 -99.9 -99.99 -9.99
2018/10/22 08:36 EDT    5.05   5.39    6  333    8  51.6 -99.9 1027.0 -9.9 -9.999 -99.9 -99.99 -9.99
2018/10/22 08:42 EDT    5.00   5.35    4  331   10  52.3 -99.9 1027.1 -9.9 -9.999 -99.9 -99.99 -9.99
2018/10/22 08:48 EDT    4.94   5.31    6  319    9  54.1 -99.9 1027.2 -9.9 -9.999 -99.9 -99.99 -9.99
2018/10/22 08:54 EDT    4.87   5.23    9  302   10  56.1 -99.9 1027.2 -9.9 -9.999 -99.9 -99.99 -9.99
2018/10/22 09:00 EDT    4.80   5.13    5  330   11  51.8 -99.9 1027.2 -9.9 -9.999 -99.9 -99.99 -9.99
2018/10/22 09:06 EDT    4.72   5.06    4  334    7  52.5 -99.9 1027.2 -9.9 -9.999 -99.9 -99.99 -9.99
2018/10/22 09:12 EDT    4.64   4.99    5  351    9  52.7 -99.9 1027.2 -9.9 -9.999 -99.9 -99.99 -9.99
2018/10/22 09:18 EDT    4.56   4.90    5  336    8  52.2 -99.9 1027.2 -9.9 -9.999 -99.9 -99.99 -9.99
2018/10/22 09:24 EDT    4.47   4.82    5  336    7  49.8 -99.9 1027.2 -9.9 -9.999 -99.9 -99.99 -9.99
2018/10/22 09:30 EDT    4.38   4.72    4  348    7  53.6 -99.9 1027.2 -9.9 -9.999 -99.9 -99.99 -9.99
2018/10/22 09:36 EDT    4.28   4.61    2  325    9  54.9 -99.9 1027.2 -9.9 -9.999 -99.9 -99.99 -9.99
2018/10/22 09:42 EDT    4.18   4.51    4  310    7  57.6 -99.9 1027.3 -9.9 -9.999 -99.9 -99.99 -9.99
2018/10/22 09:48 EDT    4.08   4.42    4  332    6  52.3 -99.9 1027.3 -9.9 -9.999 -99.9 -99.99 -9.99
2018/10/22 09:54 EDT    3.97   4.33    4  351    6  53.1 -99.9 1027.3 -9.9 -9.999 -99.9 -99.99 -9.99
2018/10/22 10:00 EDT    3.86   4.23    6  285    8  58.6 -99.9 1027.3 -9.9 -9.999 -99.9 -99.99 -9.99
2018/10/22 10:06 EDT    3.75   4.13    5  300    8  59.5 -99.9 1027.3 -9.9 -9.999 -99.9 -99.99 -9.99
2018/10/22 10:12 EDT    3.64   4.04    2  271    5  61.2 -99.9 1027.3 -9.9 -9.999 -99.9 -99.99 -9.99
2018/10/22 10:18 EDT    3.52   3.93    7  300    9  57.6 -99.9 1027.3 -9.9 -9.999 -99.9 -99.99 -9.99
2018/10/22 10:24 EDT    3.40   3.80    6  279    8  57.4 -99.9 1027.3 -9.9 -9.999 -99.9 -99.99 -9.99
2018/10/22 10:30 EDT    3.28   3.70    4  258    6  60.1 -99.9 1027.3 -9.9 -9.999 -99.9 -99.99 -9.99
2018/10/22 10:36 EDT    3.16   3.59    7  281    9  58.1 -99.9 1027.3 -9.9 -9.999 -99.9 -99.99 -9.99
2018/10/22 10:42 EDT    3.04   3.47    7  285    9  58.3 -99.9 1027.2 -9.9 -9.999 -99.9 -99.99 -9.99
2018/10/22 10:48 EDT    2.92   3.36    6  258   12  58.3 -99.9 1027.2 -9.9 -9.999 -99.9 -99.99 -9.99
2018/10/22 10:54 EDT    2.80   3.23    5  248    8  59.4 -99.9 1027.2 -9.9 -9.999 -99.9 -99.99 -9.99
2018/10/22 11:00 EDT    2.68   3.10    6  269    9  58.1 -99.9 1027.3 -9.9 -9.999 -99.9 -99.99 -9.99
2018/10/22 11:06 EDT    2.56   2.98    9  252   10  58.1 -99.9 1027.2 -9.9 -9.999 -99.9 -99.99 -9.99
2018/10/22 11:12 EDT    2.44   2.87   10  259   12  56.8 -99.9 1027.2 -9.9 -9.999 -99.9 -99.99 -9.99
2018/10/22 11:18 EDT    2.31   2.75   10  238   11  57.9 -99.9 1027.3 -9.9 -9.999 -99.9 -99.99 -9.99
2018/10/22 11:24 EDT    2.19   2.62    8  245   10  58.3 -99.9 1027.2 -9.9 -9.999 -99.9 -99.99 -9.99
2018/10/22 11:30 EDT    2.08   2.48    8  255   12  55.8 -99.9 1027.2 -9.9 -9.999 -99.9 -99.99 -9.99
2018/10/22 11:36 EDT    1.96   2.35    6  276   11  52.7 -99.9 1027.1 -9.9 -9.999 -99.9 -99.99 -9.99
2018/10/22 11:42 EDT    1.85   2.23    6  231   10  52.9 -99.9 1027.0 -9.9 -9.999 -99.9 -99.99 -9.99
2018/10/22 11:48 EDT    1.73   2.11    9  254   12  52.3 -99.9 1026.9 -9.9 -9.999 -99.9 -99.99 -9.99
2018/10/22 11:54 EDT    1.62   1.98   10  231   11  52.7 -99.9 1026.9 -9.9 -9.999 -99.9 -99.99 -9.99
2018/10/22 12:00 EDT    1.52   1.85   11  226   13  52.3 -99.9 1026.9 -9.9 -9.999 -99.9 -99.99 -9.99
2018/10/22 12:06 EDT    1.41   1.74   10  240   12  52.5 -99.9 1026.8 -9.9 -9.999 -99.9 -99.99 -9.99
2018/10/22 12:12 EDT    1.32   1.64    8  242   11  52.9 -99.9 1026.7 -9.9 -9.999 -99.9 -99.99 -9.99
2018/10/22 12:18 EDT    1.22   1.54    5  231    7  53.4 -99.9 1026.5 -9.9 -9.999 -99.9 -99.99 -9.99
2018/10/22 12:24 EDT    1.13   1.44    5  251    9  53.4 -99.9 1026.4 -9.9 -9.999 -99.9 -99.99 -9.99
2018/10/22 12:30 EDT    1.05   1.35    8  248   11  52.9 -99.9 1026.3 -9.9 -9.999 -99.9 -99.99 -9.99
2018/10/22 12:36 EDT    0.97   1.28    8  223   10  53.1 -99.9 1026.3 -9.9 -9.999 -99.9 -99.99 -9.99
2018/10/22 12:42 EDT    0.89   1.21    9  259   11  52.7 -99.9 1026.2 -9.9 -9.999 -99.9 -99.99 -9.99
2018/10/22 12:48 EDT    0.83   1.12    9  236   11  53.1 -99.9 1026.2 -9.9 -9.999 -99.9 -99.99 -9.99
2018/10/22 12:54 EDT    0.76   1.06    9  234   12  53.6 -99.9 1026.0 -9.9 -9.999 -99.9 -99.99 -9.99
2018/10/22 13:00 EDT    0.71   1.01    7  232   12  53.4 -99.9 1025.8 -9.9 -9.999 -99.9 -99.99 -9.99
2018/10/22 13:06 EDT    0.66   0.94    9  235   11  53.4 -99.9 1025.7 -9.9 -9.999 -99.9 -99.99 -9.99
2018/10/22 13:12 EDT    0.61   0.88   10  236   13  53.2 -99.9 1025.5 -9.9 -9.999 -99.9 -99.99 -9.99
2018/10/22 13:18 EDT    0.58   0.85    8  223   12  53.6 -99.9 1025.5 -9.9 -9.999 -99.9 -99.99 -9.99
2018/10/22 13:24 EDT    0.55   0.81    5  210    7  53.2 -99.9 1025.4 -9.9 -9.999 -99.9 -99.99 -9.99
2018/10/22 13:30 EDT    0.52   0.76    8  250   12  53.4 -99.9 1025.3 -9.9 -9.999 -99.9 -99.99 -9.99
2018/10/22 13:36 EDT    0.51   0.74    8  242   13  54.0 -99.9 1025.2 -9.9 -9.999 -99.9 -99.99 -9.99
2018/10/22 13:42 EDT    0.50   0.71    7  208   10  53.2 -99.9 1025.1 -9.9 -9.999 -99.9 -99.99 -9.99
2018/10/22 13:48 EDT    0.49   0.72    7  219    9  53.6 -99.9 1025.0 -9.9 -9.999 -99.9 -99.99 -9.99
2018/10/22 13:54 EDT    0.49   0.73    7  229    9  54.1 -99.9 1024.8 -9.9 -9.999 -99.9 -99.99 -9.99
2018/10/22 14:00 EDT    0.50   0.72    9  226   11  54.0 -99.9 1024.7 -9.9 -9.999 -99.9 -99.99 -9.99
2018/10/22 14:06 EDT    0.52   0.70    9  242   12  54.1 -99.9 1024.6 -9.9 -9.999 -99.9 -99.99 -9.99
2018/10/22 14:12 EDT    0.54   0.72    7  217   10  54.0 -99.9 1024.5 -9.9 -9.999 -99.9 -99.99 -9.99
2018/10/22 14:18 EDT    0.56   0.75    8  243   10  54.1 -99.9 1024.4 -9.9 -9.999 -99.9 -99.99 -9.99
2018/10/22 14:24 EDT    0.60   0.78    7  238    9  54.5 -99.9 1024.3 -9.9 -9.999 -99.9 -99.99 -9.99
2018/10/22 14:30 EDT    0.63   0.83    9  237   10  54.5 -99.9 1024.2 -9.9 -9.999 -99.9 -99.99 -9.99
2018/10/22 14:36 EDT    0.68   0.87    7  223   10  54.9 -99.9 1024.2 -9.9 -9.999 -99.9 -99.99 -9.99
2018/10/22 14:42 EDT    0.72   0.89   12  233   14  54.9 -99.9 1024.1 -9.9 -9.999 -99.9 -99.99 -9.99
2018/10/22 14:48 EDT    0.78   0.96   10  221   13  55.2 -99.9 1024.0 -9.9 -9.999 -99.9 -99.99 -9.99
2018/10/22 14:54 EDT    0.83   1.01    9  222   11  55.4 -99.9 1023.9 -9.9 -9.999 -99.9 -99.99 -9.99
2018/10/22 15:00 EDT    0.90   1.06    9  237   12  55.4 -99.9 1023.8 -9.9 -9.999 -99.9 -99.99 -9.99
2018/10/22 15:06 EDT    0.96   1.13   12  235   13  55.2 -99.9 1023.7 -9.9 -9.999 -99.9 -99.99 -9.99
2018/10/22 15:12 EDT    1.04   1.16   12  239   14  55.6 -99.9 1023.6 -9.9 -9.999 -99.9 -99.99 -9.99
2018/10/22 15:18 EDT    1.11   1.25   12  232   16  55.9 -99.9 1023.5 -9.9 -9.999 -99.9 -99.99 -9.99
2018/10/22 15:24 EDT    1.19   1.33   12  226   16  55.8 -99.9 1023.5 -9.9 -9.999 -99.9 -99.99 -9.99
2018/10/22 15:30 EDT    1.27   1.41   14  227   17  55.9 -99.9 1023.3 -9.9 -9.999 -99.9 -99.99 -9.99
2018/10/22 15:36 EDT    1.36 -99.99 -999 -999 -999 -99.9 -99.9 -999.9 -9.9 -9.999 -99.9 -99.99 -9.99
2018/10/22 15:42 EDT    1.45 -99.99 -999 -999 -999 -99.9 -99.9 -999.9 -9.9 -9.999 -99.9 -99.99 -9.99
2018/10/22 15:48 EDT    1.55 -99.99 -999 -999 -999 -99.9 -99.9 -999.9 -9.9 -9.999 -99.9 -99.99 -9.99
2018/10/22 15:54 EDT    1.65 -99.99 -999 -999 -999 -99.9 -99.9 -999.9 -9.9 -9.999 -99.9 -99.99 -9.99
2018/10/22 16:00 EDT    1.75 -99.99 -999 -999 -999 -99.9 -99.9 -999.9 -9.9 -9.999 -99.9 -99.99 -9.99
2018/10/22 16:06 EDT    1.85 -99.99 -999 -999 -999 -99.9 -99.9 -999.9 -9.9 -9.999 -99.9 -99.99 -9.99
2018/10/22 16:12 EDT    1.96 -99.99 -999 -999 -999 -99.9 -99.9 -999.9 -9.9 -9.999 -99.9 -99.99 -9.99
2018/10/22 16:18 EDT    2.07 -99.99 -999 -999 -999 -99.9 -99.9 -999.9 -9.9 -9.999 -99.9 -99.99 -9.99
2018/10/22 16:24 EDT    2.19 -99.99 -999 -999 -999 -99.9 -99.9 -999.9 -9.9 -9.999 -99.9 -99.99 -9.99
2018/10/22 16:30 EDT    2.30 -99.99 -999 -999 -999 -99.9 -99.9 -999.9 -9.9 -9.999 -99.9 -99.99 -9.99
2018/10/22 16:36 EDT    2.42 -99.99 -999 -999 -999 -99.9 -99.9 -999.9 -9.9 -9.999 -99.9 -99.99 -9.99
2018/10/22 16:42 EDT    2.54 -99.99 -999 -999 -999 -99.9 -99.9 -999.9 -9.9 -9.999 -99.9 -99.99 -9.99
2018/10/22 16:48 EDT    2.66 -99.99 -999 -999 -999 -99.9 -99.9 -999.9 -9.9 -9.999 -99.9 -99.99 -9.99
2018/10/22 16:54 EDT    2.79 -99.99 -999 -999 -999 -99.9 -99.9 -999.9 -9.9 -9.999 -99.9 -99.99 -9.99
2018/10/22 17:00 EDT    2.91 -99.99 -999 -999 -999 -99.9 -99.9 -999.9 -9.9 -9.999 -99.9 -99.99 -9.99
2018/10/22 17:06 EDT    3.03 -99.99 -999 -999 -999 -99.9 -99.9 -999.9 -9.9 -9.999 -99.9 -99.99 -9.99
2018/10/22 17:12 EDT    3.16 -99.99 -999 -999 -999 -99.9 -99.9 -999.9 -9.9 -9.999 -99.9 -99.99 -9.99
2018/10/22 17:18 EDT    3.28 -99.99 -999 -999 -999 -99.9 -99.9 -999.9 -9.9 -9.999 -99.9 -99.99 -9.99
2018/10/22 17:24 EDT    3.40 -99.99 -999 -999 -999 -99.9 -99.9 -999.9 -9.9 -9.999 -99.9 -99.99 -9.99
2018/10/22 17:30 EDT    3.53 -99.99 -999 -999 -999 -99.9 -99.9 -999.9 -9.9 -9.999 -99.9 -99.99 -9.99
2018/10/22 17:36 EDT    3.65 -99.99 -999 -999 -999 -99.9 -99.9 -999.9 -9.9 -9.999 -99.9 -99.99 -9.99
2018/10/22 17:42 EDT    3.77 -99.99 -999 -999 -999 -99.9 -99.9 -999.9 -9.9 -9.999 -99.9 -99.99 -9.99
2018/10/22 17:48 EDT    3.89 -99.99 -999 -999 -999 -99.9 -99.9 -999.9 -9.9 -9.999 -99.9 -99.99 -9.99
2018/10/22 17:54 EDT    4.00 -99.99 -999 -999 -999 -99.9 -99.9 -999.9 -9.9 -9.999 -99.9 -99.99 -9.99
2018/10/22 18:00 EDT    4.12 -99.99 -999 -999 -999 -99.9 -99.9 -999.9 -9.9 -9.999 -99.9 -99.99 -9.99
2018/10/22 18:06 EDT    4.23 -99.99 -999 -999 -999 -99.9 -99.9 -999.9 -9.9 -9.999 -99.9 -99.99 -9.99
2018/10/22 18:12 EDT    4.33 -99.99 -999 -999 -999 -99.9 -99.9 -999.9 -9.9 -9.999 -99.9 -99.99 -9.99
2018/10/22 18:18 EDT    4.44 -99.99 -999 -999 -999 -99.9 -99.9 -999.9 -9.9 -9.999 -99.9 -99.99 -9.99
2018/10/22 18:24 EDT    4.54 -99.99 -999 -999 -999 -99.9 -99.9 -999.9 -9.9 -9.999 -99.9 -99.99 -9.99
2018/10/22 18:30 EDT    4.63 -99.99 -999 -999 -999 -99.9 -99.9 -999.9 -9.9 -9.999 -99.9 -99.99 -9.99
2018/10/22 18:36 EDT    4.73 -99.99 -999 -999 -999 -99.9 -99.9 -999.9 -9.9 -9.999 -99.9 -99.99 -9.99
2018/10/22 18:42 EDT    4.81 -99.99 -999 -999 -999 -99.9 -99.9 -999.9 -9.9 -9.999 -99.9 -99.99 -9.99
2018/10/22 18:48 EDT    4.90 -99.99 -999 -999 -999 -99.9 -99.9 -999.9 -9.9 -9.999 -99.9 -99.99 -9.99
2018/10/22 18:54 EDT    4.97 -99.99 -999 -999 -999 -99.9 -99.9 -999.9 -9.9 -9.999 -99.9 -99.99 -9.99
2018/10/22 19:00 EDT    5.05 -99.99 -999 -999 -999 -99.9 -99.9 -999.9 -9.9 -9.999 -99.9 -99.99 -9.99
2018/10/22 19:06 EDT    5.12 -99.99 -999 -999 -999 -99.9 -99.9 -999.9 -9.9 -9.999 -99.9 -99.99 -9.99
2018/10/22 19:12 EDT    5.18 -99.99 -999 -999 -999 -99.9 -99.9 -999.9 -9.9 -9.999 -99.9 -99.99 -9.99
2018/10/22 19:18 EDT    5.23 -99.99 -999 -999 -999 -99.9 -99.9 -999.9 -9.9 -9.999 -99.9 -99.99 -9.99
2018/10/22 19:24 EDT    5.28 -99.99 -999 -999 -999 -99.9 -99.9 -999.9 -9.9 -9.999 -99.9 -99.99 -9.99
2018/10/22 19:30 EDT    5.33 -99.99 -999 -999 -999 -99.9 -99.9 -999.9 -9.9 -9.999 -99.9 -99.99 -9.99
2018/10/22 19:36 EDT    5.37 -99.99 -999 -999 -999 -99.9 -99.9 -999.9 -9.9 -9.999 -99.9 -99.99 -9.99
2018/10/22 19:42 EDT    5.40 -99.99 -999 -999 -999 -99.9 -99.9 -999.9 -9.9 -9.999 -99.9 -99.99 -9.99
2018/10/22 19:48 EDT    5.42 -99.99 -999 -999 -999 -99.9 -99.9 -999.9 -9.9 -9.999 -99.9 -99.99 -9.99
2018/10/22 19:54 EDT    5.44 -99.99 -999 -999 -999 -99.9 -99.9 -999.9 -9.9 -9.999 -99.9 -99.99 -9.99
2018/10/22 20:00 EDT    5.45 -99.99 -999 -999 -999 -99.9 -99.9 -999.9 -9.9 -9.999 -99.9 -99.99 -9.99
2018/10/22 20:06 EDT    5.46 -99.99 -999 -999 -999 -99.9 -99.9 -999.9 -9.9 -9.999 -99.9 -99.99 -9.99
2018/10/22 20:12 EDT    5.46 -99.99 -999 -999 -999 -99.9 -99.9 -999.9 -9.9 -9.999 -99.9 -99.99 -9.99
2018/10/22 20:18 EDT    5.45 -99.99 -999 -999 -999 -99.9 -99.9 -999.9 -9.9 -9.999 -99.9 -99.99 -9.99
2018/10/22 20:24 EDT    5.43 -99.99 -999 -999 -999 -99.9 -99.9 -999.9 -9.9 -9.999 -99.9 -99.99 -9.99
2018/10/22 20:30 EDT    5.41 -99.99 -999 -999 -999 -99.9 -99.9 -999.9 -9.9 -9.999 -99.9 -99.99 -9.99
2018/10/22 20:36 EDT    5.38 -99.99 -999 -999 -999 -99.9 -99.9 -999.9 -9.9 -9.999 -99.9 -99.99 -9.99
2018/10/22 20:42 EDT    5.35 -99.99 -999 -999 -999 -99.9 -99.9 -999.9 -9.9 -9.999 -99.9 -99.99 -9.99
2018/10/22 20:48 EDT    5.30 -99.99 -999 -999 -999 -99.9 -99.9 -999.9 -9.9 -9.999 -99.9 -99.99 -9.99
2018/10/22 20:54 EDT    5.26 -99.99 -999 -999 -999 -99.9 -99.9 -999.9 -9.9 -9.999 -99.9 -99.99 -9.99
2018/10/22 21:00 EDT    5.20 -99.99 -999 -999 -999 -99.9 -99.9 -999.9 -9.9 -9.999 -99.9 -99.99 -9.99
2018/10/22 21:06 EDT    5.14 -99.99 -999 -999 -999 -99.9 -99.9 -999.9 -9.9 -9.999 -99.9 -99.99 -9.99
2018/10/22 21:12 EDT    5.07 -99.99 -999 -999 -999 -99.9 -99.9 -999.9 -9.9 -9.999 -99.9 -99.99 -9.99
2018/10/22 21:18 EDT    5.00 -99.99 -999 -999 -999 -99.9 -99.9 -999.9 -9.9 -9.999 -99.9 -99.99 -9.99
2018/10/22 21:24 EDT    4.92 -99.99 -999 -999 -999 -99.9 -99.9 -999.9 -9.9 -9.999 -99.9 -99.99 -9.99
2018/10/22 21:30 EDT    4.84 -99.99 -999 -999 -999 -99.9 -99.9 -999.9 -9.9 -9.999 -99.9 -99.99 -9.99
2018/10/22 21:36 EDT    4.75 -99.99 -999 -999 -999 -99.9 -99.9 -999.9 -9.9 -9.999 -99.9 -99.99 -9.99

Revised: 08/08/2018
NOAA / National Ocean Service
Web site owner: Center for Operational Oceanographic Products and Services